Time;durP1;ratioP1;P1;durP2;ratioP2;P2;SDS_P1;SDS_P2;PMS_P1;PMS_P2;Temp;Humidity;BMP_temperature;BMP_pressure;BME280_temperature;BME280_humidity;BME280_pressure;Samples;Min_cycle;Max_cycle;Signal;HPM_P1;HPM_P2
2021/07/26 00:01:22;;;;;;;0.40;0.37;;;18.10;99.90;;;;;;5073578;28;20652;-86
2021/07/26 00:03:48;;;;;;;0.80;0.40;;;18.10;99.90;;;;;;5099516;28;20190;-86
2021/07/26 00:06:13;;;;;;;0.30;0.20;;;18.10;99.90;;;;;;5091924;28;20192;-86
2021/07/26 00:08:39;;;;;;;1.10;0.67;;;17.90;99.90;;;;;;5104221;28;20203;-86
2021/07/26 00:11:14;;;;;;;0.30;0.30;;;17.80;99.90;;;;;;5098906;28;20189;-86
2021/07/26 00:13:39;;;;;;;0.23;0.23;;;17.70;99.90;;;;;;5110087;28;20205;-86
2021/07/26 00:16:06;;;;;;;0.63;0.50;;;17.60;99.90;;;;;;5099955;28;20191;-88
2021/07/26 00:18:40;;;;;;;1.60;0.93;;;17.60;99.90;;;;;;5093088;28;20228;-86
2021/07/26 00:21:05;;;;;;;0.30;0.30;;;17.70;99.90;;;;;;5079913;28;20229;-87
2021/07/26 00:23:31;;;;;;;0.37;0.30;;;17.80;99.90;;;;;;5104311;28;20199;-86
2021/07/26 00:25:57;;;;;;;0.30;0.30;;;18.10;99.90;;;;;;5098690;28;20213;-86
2021/07/26 00:28:22;;;;;;;0.20;0.20;;;18.20;99.90;;;;;;5103641;28;20179;-86
2021/07/26 00:30:48;;;;;;;0.33;0.33;;;18.20;99.90;;;;;;5095166;28;20611;-86
2021/07/26 00:36:20;;;;;;;0.20;0.20;;;18.40;99.90;;;;;;5088509;28;20183;-85
2021/07/26 00:38:46;;;;;;;0.30;0.30;;;18.40;99.90;;;;;;5099741;28;20282;-86
2021/07/26 00:41:11;;;;;;;0.40;0.40;;;18.40;99.90;;;;;;5106893;28;20229;-86
2021/07/26 00:43:37;;;;;;;0.20;0.20;;;18.30;99.90;;;;;;5098610;28;20243;-86
2021/07/26 00:46:03;;;;;;;0.43;0.43;;;18.20;99.90;;;;;;5090576;28;20204;-86
2021/07/26 00:48:28;;;;;;;0.27;0.27;;;18.00;99.90;;;;;;5100019;28;20270;-86
2021/07/26 00:50:54;;;;;;;0.20;0.20;;;18.10;99.90;;;;;;5101083;28;20268;-85
2021/07/26 00:53:19;;;;;;;0.20;0.20;;;18.10;99.90;;;;;;5109370;28;20882;-86
2021/07/26 00:55:45;;;;;;;0.20;0.20;;;18.10;99.90;;;;;;5107936;28;20180;-86
2021/07/26 00:58:10;;;;;;;1.07;1.07;;;18.00;99.90;;;;;;5096869;28;20196;-86
2021/07/26 01:00:36;;;;;;;0.60;0.60;;;17.90;99.90;;;;;;5107377;28;20680;-86
2021/07/26 01:03:02;;;;;;;0.30;0.30;;;17.70;99.90;;;;;;5096352;28;20191;-86
2021/07/26 01:05:27;;;;;;;0.50;0.50;;;17.60;99.90;;;;;;5097282;28;20760;-86
2021/07/26 01:07:53;;;;;;;0.13;0.13;;;17.60;99.90;;;;;;5099792;28;20180;-86
2021/07/26 01:10:19;;;;;;;0.17;0.17;;;17.70;99.90;;;;;;5090002;28;20716;-86
2021/07/26 01:12:44;;;;;;;0.80;0.37;;;17.80;99.90;;;;;;5100259;28;20604;-86
2021/07/26 01:15:16;;;;;;;0.30;0.30;;;17.90;99.90;;;;;;5091628;28;20186;-86
2021/07/26 01:18:17;;;;;;;0.30;0.30;;;18.10;99.90;;;;;;5102099;28;20176;-85
2021/07/26 01:20:43;;;;;;;0.20;0.20;;;18.20;99.90;;;;;;5102757;28;20221;-86
2021/07/26 01:23:09;;;;;;;0.67;0.20;;;18.30;99.90;;;;;;5094432;28;20274;-86
2021/07/26 01:25:36;;;;;;;0.27;0.27;;;18.10;99.90;;;;;;5102232;28;20659;-86
2021/07/26 01:28:01;;;;;;;0.33;0.20;;;18.10;99.90;;;;;;5100701;28;20187;-86
2021/07/26 01:30:27;;;;;;;0.50;0.50;;;18.00;99.90;;;;;;5092153;28;20218;-86
2021/07/26 01:32:52;;;;;;;0.30;0.30;;;17.90;99.90;;;;;;5107474;28;20175;-86
2021/07/26 01:35:18;;;;;;;0.40;0.40;;;18.00;99.90;;;;;;5086403;28;20184;-86
2021/07/26 01:37:44;;;;;;;0.83;0.40;;;18.00;99.90;;;;;;5086833;28;20233;-86
2021/07/26 01:40:10;;;;;;;0.87;0.47;;;18.20;99.90;;;;;;5096474;28;20217;-86
2021/07/26 01:42:43;;;;;;;0.20;0.20;;;18.20;99.90;;;;;;5091801;28;20195;-86
2021/07/26 01:45:09;;;;;;;0.20;0.20;;;18.10;99.90;;;;;;5099655;28;20176;-86
2021/07/26 01:47:40;;;;;;;0.37;0.37;;;17.80;99.90;;;;;;5103688;28;20186;-86
2021/07/26 01:50:10;;;;;;;0.50;0.30;;;17.60;99.90;;;;;;5099417;28;20257;-86
2021/07/26 01:52:36;;;;;;;0.10;0.10;;;17.40;99.90;;;;;;5096792;28;20180;-86
2021/07/26 01:55:02;;;;;;;0.60;0.13;;;17.30;99.90;;;;;;5108171;28;20177;-86
2021/07/26 01:57:27;;;;;;;0.23;0.23;;;17.30;99.90;;;;;;5103814;28;20191;-86
2021/07/26 01:59:53;;;;;;;0.77;0.30;;;17.40;99.90;;;;;;5099676;28;20214;-86
2021/07/26 02:02:19;;;;;;;0.20;0.20;;;17.30;99.90;;;;;;5107354;28;20224;-86
2021/07/26 02:04:44;;;;;;;0.30;0.30;;;17.30;99.90;;;;;;5096129;28;20194;-86
2021/07/26 02:07:10;;;;;;;0.30;0.30;;;17.50;99.90;;;;;;5095243;28;20285;-87
2021/07/26 02:09:36;;;;;;;0.20;0.20;;;17.60;99.90;;;;;;5091036;28;20214;-86
2021/07/26 02:12:05;;;;;;;0.70;0.70;;;17.70;99.90;;;;;;5102425;28;20186;-86
2021/07/26 02:14:31;;;;;;;0.20;0.20;;;17.90;99.90;;;;;;5096128;28;20187;-86
2021/07/26 02:16:57;;;;;;;0.30;0.30;;;18.00;99.90;;;;;;5089824;28;20231;-86
2021/07/26 02:19:22;;;;;;;0.13;0.13;;;18.10;99.90;;;;;;5108397;28;20215;-86
2021/07/26 02:21:49;;;;;;;0.20;0.20;;;18.10;99.90;;;;;;5110888;28;20278;-86
2021/07/26 02:24:15;;;;;;;0.40;0.40;;;18.20;99.90;;;;;;5076974;28;20284;-86
2021/07/26 02:26:40;;;;;;;0.40;0.40;;;18.20;99.90;;;;;;5074941;28;20645;-86
2021/07/26 02:29:06;;;;;;;4.80;0.67;;;18.20;99.90;;;;;;5107061;28;20223;-86
2021/07/26 02:31:31;;;;;;;0.30;0.30;;;18.00;99.90;;;;;;5088995;28;20188;-86
2021/07/26 02:33:57;;;;;;;0.73;0.47;;;17.80;99.90;;;;;;5096807;28;20233;-86
2021/07/26 02:36:23;;;;;;;0.20;0.20;;;17.80;99.90;;;;;;5098345;28;20195;-86
2021/07/26 02:38:48;;;;;;;0.20;0.20;;;17.80;99.90;;;;;;5107398;28;20175;-86
2021/07/26 02:41:15;;;;;;;0.33;0.33;;;17.60;99.90;;;;;;5103666;28;20636;-86
2021/07/26 02:43:42;;;;;;;0.73;0.30;;;17.60;99.90;;;;;;5102618;28;20182;-86
2021/07/26 02:46:09;;;;;;;0.20;0.20;;;17.50;99.90;;;;;;5104419;28;20193;-86
2021/07/26 02:48:36;;;;;;;0.20;0.20;;;17.50;99.90;;;;;;5106406;28;20180;-86
2021/07/26 02:51:02;;;;;;;0.20;0.20;;;17.40;99.90;;;;;;5102185;28;20600;-86
2021/07/26 02:53:28;;;;;;;0.67;0.60;;;17.40;99.90;;;;;;5111420;28;20191;-86
2021/07/26 02:55:53;;;;;;;0.53;0.40;;;17.30;99.90;;;;;;5097427;28;20211;-86
2021/07/26 02:58:20;;;;;;;0.30;0.30;;;17.10;99.90;;;;;;5100850;28;20185;-86
2021/07/26 03:00:46;;;;;;;0.20;0.20;;;17.00;99.90;;;;;;5110448;28;20683;-86
2021/07/26 03:03:12;;;;;;;0.30;0.30;;;17.00;99.90;;;;;;5105646;28;20203;-86
2021/07/26 03:05:37;;;;;;;0.20;0.20;;;17.00;99.90;;;;;;5096153;28;20661;-86
2021/07/26 03:08:03;;;;;;;0.67;0.67;;;17.10;99.90;;;;;;5097554;28;20168;-85
2021/07/26 03:10:29;;;;;;;0.50;0.30;;;17.10;99.90;;;;;;5093529;28;20249;-86
2021/07/26 03:12:54;;;;;;;0.13;0.13;;;17.30;99.90;;;;;;5106705;28;20176;-86
2021/07/26 03:15:21;;;;;;;0.20;0.20;;;17.40;99.90;;;;;;5094630;28;20183;-85
2021/07/26 03:17:47;;;;;;;0.30;0.30;;;17.50;99.90;;;;;;5084180;28;20181;-86
2021/07/26 03:20:13;;;;;;;0.37;0.20;;;17.60;99.90;;;;;;5095884;28;20195;-86
2021/07/26 03:23:05;;;;;;;0.30;0.30;;;17.70;99.90;;;;;;5106446;28;20821;-86
2021/07/26 03:25:32;;;;;;;1.40;0.53;;;17.80;99.90;;;;;;5096414;28;20209;-86
2021/07/26 03:27:59;;;;;;;0.30;0.13;;;17.80;99.90;;;;;;5076721;28;20191;-85
2021/07/26 03:30:25;;;;;;;0.47;0.47;;;17.80;99.90;;;;;;5097577;28;20685;-86
2021/07/26 03:32:52;;;;;;;0.20;0.20;;;17.80;99.90;;;;;;5086515;28;20184;-85
2021/07/26 03:35:19;;;;;;;0.50;0.50;;;17.80;99.90;;;;;;5099164;28;20172;-86
2021/07/26 03:37:45;;;;;;;0.30;0.30;;;17.80;99.90;;;;;;5090639;28;20580;-85
2021/07/26 03:40:11;;;;;;;0.20;0.20;;;17.80;99.90;;;;;;5090091;28;20205;-85
2021/07/26 03:42:39;;;;;;;0.30;0.30;;;17.80;99.90;;;;;;5102438;28;20622;-85
2021/07/26 03:45:06;;;;;;;0.23;0.23;;;17.90;99.90;;;;;;5090360;28;20201;-85
2021/07/26 03:47:32;;;;;;;0.27;0.27;;;17.90;99.90;;;;;;5100188;28;20704;-85
2021/07/26 03:49:58;;;;;;;0.20;0.20;;;17.70;99.90;;;;;;5090098;28;20227;-85
2021/07/26 03:52:23;;;;;;;0.20;0.20;;;17.50;99.90;;;;;;5089793;28;20546;-85
2021/07/26 03:54:49;;;;;;;0.87;0.50;;;17.50;99.90;;;;;;5089720;28;20640;-85
2021/07/26 03:57:16;;;;;;;0.53;0.53;;;17.70;99.90;;;;;;5087477;28;20177;-85
2021/07/26 03:59:41;;;;;;;0.30;0.30;;;17.80;99.90;;;;;;5083373;28;20617;-85
2021/07/26 04:02:07;;;;;;;0.20;0.20;;;17.90;99.90;;;;;;5097365;28;20187;-85
2021/07/26 04:04:32;;;;;;;0.20;0.20;;;18.00;99.90;;;;;;5096360;28;20184;-85
2021/07/26 04:07:04;;;;;;;0.47;0.47;;;18.00;99.90;;;;;;5078138;28;20215;-85
2021/07/26 04:09:38;;;;;;;0.30;0.30;;;17.90;99.90;;;;;;5106786;28;20201;-85
2021/07/26 04:12:07;;;;;;;0.57;0.57;;;17.80;99.90;;;;;;5097465;28;20637;-85
2021/07/26 04:14:40;;;;;;;0.30;0.30;;;17.70;99.90;;;;;;5089450;28;20181;-85
2021/07/26 04:17:06;;;;;;;0.20;0.20;;;17.90;99.90;;;;;;5094364;28;20187;-85
2021/07/26 04:19:32;;;;;;;0.20;0.20;;;18.40;99.90;;;;;;5092926;28;20211;-85
2021/07/26 04:21:58;;;;;;;0.50;0.47;;;18.70;99.90;;;;;;5092746;28;20190;-84
2021/07/26 04:24:24;;;;;;;1.03;0.30;;;19.00;99.90;;;;;;5094177;28;20203;-85
2021/07/26 04:26:49;;;;;;;0.30;0.30;;;19.20;99.90;;;;;;5095470;28;20262;-85
2021/07/26 04:29:15;;;;;;;2.43;1.17;;;19.30;99.90;;;;;;5083650;28;20200;-86
2021/07/26 04:31:42;;;;;;;0.30;0.30;;;19.10;99.90;;;;;;5097111;28;20208;-85
2021/07/26 04:34:08;;;;;;;0.30;0.30;;;19.20;99.90;;;;;;5096624;28;20229;-85
2021/07/26 04:36:33;;;;;;;0.17;0.17;;;19.40;99.90;;;;;;5084422;28;20185;-85
2021/07/26 04:38:59;;;;;;;2.03;0.60;;;19.30;99.90;;;;;;5089799;28;20355;-85
2021/07/26 04:41:24;;;;;;;0.30;0.30;;;19.30;99.90;;;;;;5089056;28;20251;-85
2021/07/26 04:43:50;;;;;;;0.43;0.43;;;19.30;99.90;;;;;;5087647;28;20765;-86
2021/07/26 04:46:15;;;;;;;0.30;0.30;;;19.30;99.90;;;;;;5102592;28;20634;-86
2021/07/26 04:48:41;;;;;;;0.60;0.60;;;19.30;99.90;;;;;;5096878;28;20735;-85
2021/07/26 04:51:06;;;;;;;0.73;0.27;;;19.30;99.90;;;;;;5094264;28;20176;-85
2021/07/26 04:53:33;;;;;;;0.87;0.70;;;19.40;99.90;;;;;;5102474;28;20171;-85
2021/07/26 04:55:59;;;;;;;0.60;0.40;;;19.40;99.90;;;;;;5104098;28;20203;-85
2021/07/26 04:58:25;;;;;;;0.53;0.53;;;19.30;99.90;;;;;;5099952;28;20215;-86
2021/07/26 05:00:50;;;;;;;0.20;0.20;;;19.40;99.90;;;;;;5100741;28;20235;-86
2021/07/26 05:03:16;;;;;;;0.73;0.43;;;19.50;99.90;;;;;;5098796;28;20222;-86
2021/07/26 05:05:42;;;;;;;0.10;0.10;;;19.40;99.90;;;;;;5089834;28;20301;-86
2021/07/26 05:08:07;;;;;;;0.40;0.40;;;19.10;99.90;;;;;;5090202;28;20177;-86
2021/07/26 05:10:33;;;;;;;1.37;0.63;;;18.80;99.90;;;;;;5102659;28;20617;-86
2021/07/26 05:12:58;;;;;;;0.47;0.47;;;19.00;99.90;;;;;;5100555;28;20180;-86
2021/07/26 05:15:24;;;;;;;0.30;0.30;;;19.20;99.90;;;;;;5105273;28;20176;-86
2021/07/26 05:17:49;;;;;;;0.50;0.50;;;19.20;99.90;;;;;;5092754;28;20191;-85
2021/07/26 05:20:15;;;;;;;0.20;0.20;;;19.40;99.90;;;;;;5096182;28;20273;-85
2021/07/26 05:22:41;;;;;;;0.33;0.33;;;19.70;99.90;;;;;;5085045;28;20224;-84
2021/07/26 05:25:08;;;;;;;0.40;0.40;;;19.80;99.90;;;;;;5102517;28;20647;-85
2021/07/26 05:27:33;;;;;;;0.37;0.37;;;20.00;99.90;;;;;;5094018;28;20187;-85
2021/07/26 05:29:59;;;;;;;0.47;0.47;;;20.10;99.90;;;;;;5082326;28;20258;-84
2021/07/26 05:32:24;;;;;;;0.37;0.37;;;20.20;99.90;;;;;;5091752;28;20246;-84
2021/07/26 05:34:50;;;;;;;0.37;0.37;;;20.30;99.90;;;;;;5086912;28;20610;-87
2021/07/26 05:37:17;;;;;;;0.47;0.47;;;20.20;99.90;;;;;;5097850;28;20195;-86
2021/07/26 05:39:42;;;;;;;0.27;0.27;;;20.20;99.90;;;;;;5099137;28;20200;-86
2021/07/26 05:42:10;;;;;;;0.47;0.47;;;20.30;99.90;;;;;;5080526;28;20501;-86
2021/07/26 05:44:40;;;;;;;0.57;0.57;;;19.80;99.90;;;;;;5079997;28;20225;-86
2021/07/26 05:47:07;;;;;;;0.53;0.37;;;20.10;99.90;;;;;;5103902;28;20200;-86
2021/07/26 05:49:33;;;;;;;0.30;0.30;;;20.30;99.90;;;;;;5094333;28;20234;-87
2021/07/26 05:51:59;;;;;;;0.33;0.33;;;20.20;99.90;;;;;;5089864;28;20185;-86
2021/07/26 05:54:24;;;;;;;0.70;0.70;;;20.50;99.90;;;;;;5109415;28;20300;-86
2021/07/26 05:56:50;;;;;;;0.20;0.20;;;20.70;99.90;;;;;;5102473;28;20276;-86
2021/07/26 05:59:24;;;;;;;0.57;0.57;;;20.80;99.90;;;;;;5087126;28;20207;-86
2021/07/26 06:01:49;;;;;;;0.73;0.73;;;20.90;99.90;;;;;;5095263;28;20619;-86
2021/07/26 06:04:17;;;;;;;0.80;0.80;;;20.90;99.90;;;;;;5100247;28;20203;-86
2021/07/26 06:06:43;;;;;;;0.40;0.20;;;21.00;99.90;;;;;;5089728;28;20208;-86
2021/07/26 06:09:10;;;;;;;0.30;0.30;;;21.00;99.90;;;;;;5093372;28;20582;-86
2021/07/26 06:11:37;;;;;;;0.30;0.30;;;21.10;99.90;;;;;;5093095;28;20188;-86
2021/07/26 06:14:02;;;;;;;0.33;0.33;;;21.10;99.90;;;;;;5094834;28;20524;-86
2021/07/26 06:16:28;;;;;;;0.43;0.43;;;21.10;99.90;;;;;;5097976;28;20176;-86
2021/07/26 06:18:57;;;;;;;1.37;0.70;;;21.20;99.90;;;;;;5092114;28;20555;-87
2021/07/26 06:21:23;;;;;;;0.30;0.30;;;21.00;99.90;;;;;;5080139;28;20695;-87
2021/07/26 06:23:49;;;;;;;1.10;0.60;;;20.80;99.90;;;;;;5077982;28;20196;-84
2021/07/26 06:26:14;;;;;;;1.00;0.70;;;20.90;99.90;;;;;;5091269;28;22414;-86
2021/07/26 06:28:40;;;;;;;0.50;0.50;;;21.20;99.90;;;;;;5090267;28;20697;-86
2021/07/26 06:31:06;;;;;;;0.47;0.47;;;21.40;99.90;;;;;;5094685;28;20188;-86
2021/07/26 06:33:32;;;;;;;0.60;0.60;;;21.60;99.90;;;;;;5092633;28;20172;-87
2021/07/26 06:35:58;;;;;;;0.50;0.50;;;21.70;99.90;;;;;;5087380;28;20714;-86
2021/07/26 06:38:24;;;;;;;1.33;1.23;;;21.80;99.90;;;;;;5094704;28;20180;-86
2021/07/26 06:40:50;;;;;;;0.60;0.40;;;21.70;99.90;;;;;;5089102;28;20199;-85
2021/07/26 06:43:15;;;;;;;0.40;0.40;;;21.60;99.90;;;;;;5105145;28;20180;-84
2021/07/26 06:45:41;;;;;;;1.80;1.70;;;21.80;99.90;;;;;;5076188;28;20200;-85
2021/07/26 06:48:07;;;;;;;0.30;0.30;;;21.90;99.90;;;;;;5074230;28;20231;-85
2021/07/26 06:50:32;;;;;;;0.50;0.50;;;22.00;99.90;;;;;;5100713;28;20296;-84
2021/07/26 06:52:58;;;;;;;0.47;0.43;;;22.10;99.90;;;;;;5077743;28;20180;-83
2021/07/26 06:55:23;;;;;;;0.60;0.60;;;22.20;99.90;;;;;;5074926;28;20250;-83
2021/07/26 06:57:49;;;;;;;0.47;0.40;;;22.30;99.90;;;;;;5091954;28;20191;-85
2021/07/26 07:00:15;;;;;;;0.27;0.27;;;22.50;99.90;;;;;;5087967;28;20296;-87
2021/07/26 07:02:40;;;;;;;0.70;0.70;;;22.60;99.90;;;;;;5084636;28;20223;-86
2021/07/26 07:05:06;;;;;;;0.27;0.27;;;22.80;99.90;;;;;;5094210;28;20317;-85
2021/07/26 07:07:32;;;;;;;0.40;0.40;;;22.90;99.90;;;;;;5095301;28;20217;-86
2021/07/26 07:09:57;;;;;;;0.50;0.40;;;22.90;99.90;;;;;;5102474;28;20199;-89
2021/07/26 07:12:23;;;;;;;0.30;0.30;;;22.90;99.90;;;;;;5090716;28;20223;-88
2021/07/26 07:14:48;;;;;;;1.10;0.70;;;22.90;99.90;;;;;;5090682;28;20259;-87
2021/07/26 07:17:18;;;;;;;0.30;0.30;;;23.00;99.90;;;;;;5096405;28;20189;-88
2021/07/26 07:19:45;;;;;;;0.80;0.80;;;23.10;99.90;;;;;;5081500;28;20223;-87
2021/07/26 07:22:11;;;;;;;0.63;0.63;;;23.10;99.90;;;;;;5088181;28;20555;-87
2021/07/26 07:24:37;;;;;;;0.43;0.40;;;23.00;99.90;;;;;;5090577;28;20245;-87
2021/07/26 07:27:02;;;;;;;0.50;0.50;;;23.10;99.90;;;;;;5097232;28;20604;-87
2021/07/26 07:29:28;;;;;;;0.50;0.50;;;23.30;99.90;;;;;;5103615;28;20258;-87
2021/07/26 07:31:54;;;;;;;0.57;0.57;;;23.10;99.90;;;;;;5091696;28;20182;-87
2021/07/26 07:34:19;;;;;;;0.50;0.50;;;23.30;99.90;;;;;;5090145;28;20603;-88
2021/07/26 07:36:46;;;;;;;0.43;0.23;;;23.30;99.90;;;;;;5086466;28;20687;-87
2021/07/26 07:39:12;;;;;;;0.57;0.57;;;23.50;99.90;;;;;;5101312;28;20728;-87
2021/07/26 07:41:38;;;;;;;0.60;0.60;;;23.70;99.90;;;;;;5094663;28;20267;-87
2021/07/26 07:44:03;;;;;;;1.60;0.60;;;23.80;99.90;;;;;;5107393;28;20267;-86
2021/07/26 07:46:30;;;;;;;1.40;1.00;;;23.90;99.90;;;;;;5097048;28;20204;-87
2021/07/26 07:48:55;;;;;;;0.50;0.50;;;24.10;99.90;;;;;;5101704;28;20197;-87
2021/07/26 07:51:22;;;;;;;0.40;0.27;;;24.00;99.90;;;;;;5100287;28;20180;-87
2021/07/26 07:53:49;;;;;;;0.27;0.27;;;24.10;99.90;;;;;;5104326;28;20559;-86
2021/07/26 07:56:15;;;;;;;0.70;0.60;;;24.30;99.90;;;;;;5096726;28;20643;-87
2021/07/26 07:58:41;;;;;;;0.87;0.70;;;24.40;99.90;;;;;;5105500;28;20565;-87
2021/07/26 08:01:06;;;;;;;0.43;0.43;;;24.40;99.90;;;;;;5107871;28;20183;-86
2021/07/26 08:03:32;;;;;;;0.60;0.60;;;24.30;99.90;;;;;;5105740;28;20172;-87
2021/07/26 08:06:00;;;;;;;2.27;0.40;;;24.20;99.90;;;;;;5101519;28;20208;-87
2021/07/26 08:08:26;;;;;;;0.40;0.40;;;24.30;99.90;;;;;;5105488;28;20261;-88
2021/07/26 08:10:51;;;;;;;0.53;0.40;;;24.30;99.90;;;;;;5096418;28;20216;-87
2021/07/26 08:13:22;;;;;;;0.40;0.40;;;24.50;99.90;;;;;;5096326;28;20238;-87
2021/07/26 08:15:52;;;;;;;0.50;0.50;;;24.70;99.90;;;;;;5102893;28;20179;-87
2021/07/26 08:18:21;;;;;;;0.70;0.70;;;24.90;99.90;;;;;;5096615;28;20544;-86
2021/07/26 08:20:47;;;;;;;0.20;0.20;;;24.90;99.90;;;;;;5094373;28;20204;-87
2021/07/26 08:23:13;;;;;;;0.20;0.20;;;25.10;99.90;;;;;;5084021;28;20811;-87
2021/07/26 08:25:39;;;;;;;0.20;0.20;;;25.20;99.90;;;;;;5098728;28;20207;-87
2021/07/26 08:28:05;;;;;;;0.60;0.43;;;25.20;99.90;;;;;;5093169;28;20189;-87
2021/07/26 08:30:33;;;;;;;0.70;0.70;;;25.30;99.90;;;;;;5096067;28;20208;-86
2021/07/26 08:33:00;;;;;;;0.40;0.40;;;25.30;99.90;;;;;;5089459;28;20196;-85
2021/07/26 08:35:26;;;;;;;0.50;0.50;;;25.30;99.90;;;;;;5089822;28;20191;-86
2021/07/26 08:37:52;;;;;;;0.40;0.40;;;25.30;99.90;;;;;;5091550;28;20184;-85
2021/07/26 08:40:24;;;;;;;0.70;0.70;;;25.20;99.90;;;;;;5095539;28;20218;-85
2021/07/26 08:42:51;;;;;;;0.50;0.50;;;25.40;99.90;;;;;;5096097;28;20216;-86
2021/07/26 08:45:17;;;;;;;0.43;0.33;;;25.40;99.90;;;;;;5077184;28;20177;-86
2021/07/26 08:47:44;;;;;;;0.23;0.23;;;25.60;99.90;;;;;;5093705;28;20188;-86
2021/07/26 08:50:13;;;;;;;2.63;0.60;;;25.70;99.90;;;;;;5096986;28;20601;-84
2021/07/26 08:52:41;;;;;;;0.40;0.40;;;25.70;99.90;;;;;;5088657;28;20188;-85
2021/07/26 08:55:11;;;;;;;0.83;0.83;;;25.70;99.90;;;;;;5104294;28;20216;-85
2021/07/26 08:57:40;;;;;;;0.50;0.50;;;25.70;99.90;;;;;;5083469;28;20553;-86
2021/07/26 09:00:06;;;;;;;1.00;0.87;;;25.80;99.90;;;;;;5083985;28;20683;-85
2021/07/26 09:02:32;;;;;;;1.43;0.30;;;25.70;99.90;;;;;;5078001;28;20636;-84
2021/07/26 09:04:57;;;;;;;0.40;0.40;;;25.80;99.90;;;;;;5094827;28;20184;-85
2021/07/26 09:07:26;;;;;;;0.33;0.33;;;26.10;99.90;;;;;;5088153;28;20207;-85
2021/07/26 09:09:52;;;;;;;0.20;0.20;;;26.00;99.90;;;;;;5091696;28;20698;-85
2021/07/26 09:12:31;;;;;;;0.80;0.80;;;26.20;99.90;;;;;;5110488;28;20267;-85
2021/07/26 09:14:58;;;;;;;0.67;0.63;;;26.20;99.90;;;;;;5087557;28;20660;-85
2021/07/26 09:17:23;;;;;;;0.53;0.53;;;26.10;99.90;;;;;;5082381;28;20204;-86
2021/07/26 09:20:00;;;;;;;0.40;0.40;;;26.00;99.90;;;;;;5079521;28;20200;-84
2021/07/26 09:22:45;;;;;;;0.53;0.53;;;25.80;99.90;;;;;;5083688;28;20188;-85
2021/07/26 09:25:20;;;;;;;0.23;0.23;;;26.00;99.90;;;;;;5091246;28;20691;-87
2021/07/26 09:28:07;;;;;;;0.70;0.70;;;25.90;99.90;;;;;;5094427;28;20180;-86
2021/07/26 09:30:52;;;;;;;0.30;0.30;;;25.90;99.90;;;;;;5090288;28;20286;-85
2021/07/26 09:33:25;;;;;;;0.20;0.20;;;26.00;99.90;;;;;;5081256;28;20252;-85
2021/07/26 09:36:10;;;;;;;0.40;0.40;;;26.20;99.90;;;;;;5089447;28;20231;-85
2021/07/26 09:38:36;;;;;;;0.67;0.67;;;26.20;99.90;;;;;;5099520;28;20201;-85
2021/07/26 09:41:04;;;;;;;0.60;0.60;;;26.40;99.90;;;;;;5102046;28;20215;-85
2021/07/26 09:43:30;;;;;;;1.40;0.40;;;26.60;99.90;;;;;;5102329;28;20177;-85
2021/07/26 09:45:56;;;;;;;1.60;0.60;;;26.80;99.90;;;;;;5096381;28;20226;-85
2021/07/26 09:48:25;;;;;;;0.53;0.53;;;26.70;99.90;;;;;;5092553;28;20181;-85
2021/07/26 09:50:51;;;;;;;0.97;0.80;;;26.90;99.90;;;;;;5082601;28;20287;-85
2021/07/26 09:53:22;;;;;;;0.83;0.50;;;26.90;99.90;;;;;;5086437;28;20268;-84
2021/07/26 09:55:58;;;;;;;0.70;0.70;;;26.80;99.90;;;;;;5090100;28;20189;-85
2021/07/26 09:58:39;;;;;;;0.63;0.50;;;26.70;99.90;;;;;;5090140;28;20183;-86
2021/07/26 10:01:07;;;;;;;0.37;0.33;;;26.60;99.90;;;;;;5082912;28;20184;-86
2021/07/26 10:03:33;;;;;;;0.43;0.43;;;26.60;99.90;;;;;;5096463;28;20185;-86
2021/07/26 10:05:59;;;;;;;0.40;0.40;;;26.80;99.90;;;;;;5089161;28;20732;-86
2021/07/26 10:08:27;;;;;;;0.63;0.63;;;27.40;99.90;;;;;;5085432;28;20233;-85
2021/07/26 10:10:53;;;;;;;0.57;0.57;;;27.40;99.90;;;;;;5079396;28;20732;-85
2021/07/26 10:13:19;;;;;;;1.03;0.70;;;27.40;99.90;;;;;;5090743;28;20275;-86
2021/07/26 10:15:46;;;;;;;0.67;0.50;;;27.60;99.90;;;;;;5086473;28;20648;-86
2021/07/26 10:18:13;;;;;;;0.70;0.70;;;27.70;99.90;;;;;;5093626;28;20262;-87
2021/07/26 10:20:46;;;;;;;0.70;0.60;;;27.60;99.90;;;;;;5102890;28;20209;-86
2021/07/26 10:23:20;;;;;;;0.23;0.23;;;27.50;99.90;;;;;;5083642;28;20664;-86
2021/07/26 10:26:03;;;;;;;1.10;0.87;;;27.40;99.90;;;;;;5101218;28;20208;-85
2021/07/26 10:28:51;;;;;;;1.13;0.70;;;27.10;99.90;;;;;;5088715;28;20173;-85
2021/07/26 10:31:31;;;;;;;0.50;0.50;;;26.80;99.90;;;;;;5081482;28;20202;-86
2021/07/26 10:34:11;;;;;;;0.43;0.43;;;26.70;99.90;;;;;;5075279;28;20176;-86
2021/07/26 10:36:40;;;;;;;1.03;0.60;;;27.10;99.90;;;;;;5084333;28;20648;-86
2021/07/26 10:39:09;;;;;;;0.80;0.80;;;27.10;99.90;;;;;;5085016;28;20208;-86
2021/07/26 10:41:44;;;;;;;0.70;0.70;;;27.20;99.90;;;;;;5102776;28;20187;-86
2021/07/26 10:44:32;;;;;;;0.60;0.60;;;27.10;99.90;;;;;;5082502;28;20664;-86
2021/07/26 10:47:05;;;;;;;0.40;0.40;;;27.10;99.90;;;;;;5104643;28;20207;-87
2021/07/26 10:49:43;;;;;;;0.70;0.60;;;27.20;99.90;;;;;;5072400;28;20197;-87
2021/07/26 10:52:29;;;;;;;0.50;0.37;;;27.10;99.90;;;;;;5081633;28;20564;-86
2021/07/26 10:54:57;;;;;;;0.50;0.50;;;27.00;99.90;;;;;;5085769;28;20177;-85
2021/07/26 10:57:49;;;;;;;0.80;0.70;;;26.80;99.90;;;;;;5094720;28;20330;-87
2021/07/26 11:00:17;;;;;;;0.93;0.83;;;26.60;99.90;;;;;;5078416;28;20234;-85
2021/07/26 11:02:50;;;;;;;0.47;0.47;;;26.80;99.90;;;;;;5081364;28;20208;-85
2021/07/26 11:05:24;;;;;;;0.90;0.90;;;27.30;99.90;;;;;;5083502;28;20180;-86
2021/07/26 11:08:12;;;;;;;0.33;0.33;;;27.80;99.90;;;;;;5086960;28;20654;-86
2021/07/26 11:10:45;;;;;;;1.60;0.80;;;28.00;99.90;;;;;;5089314;28;20671;-86
2021/07/26 11:13:12;;;;;;;0.57;0.57;;;28.30;99.90;;;;;;5096786;28;20200;-87
2021/07/26 11:15:44;;;;;;;0.57;0.50;;;28.50;99.90;;;;;;5105508;27;20188;-86
2021/07/26 11:18:28;;;;;;;0.50;0.50;;;28.90;99.90;;;;;;5105512;27;20183;-86
2021/07/26 11:21:05;;;;;;;0.63;0.63;;;29.20;99.90;;;;;;5086717;28;20337;-86
2021/07/26 11:23:49;;;;;;;1.20;0.60;;;29.20;99.90;;;;;;5107333;27;20191;-87
2021/07/26 11:26:30;;;;;;;0.40;0.40;;;29.30;99.90;;;;;;5099521;28;20203;-86
2021/07/26 11:29:09;;;;;;;0.63;0.63;;;29.00;99.90;;;;;;5103747;28;20172;-86
2021/07/26 11:31:38;;;;;;;0.40;0.40;;;28.60;99.90;;;;;;5118068;27;20180;-87
2021/07/26 11:34:14;;;;;;;0.50;0.50;;;28.50;99.90;;;;;;5097480;28;20169;-88
2021/07/26 11:37:07;;;;;;;0.60;0.40;;;28.30;99.90;;;;;;5107174;27;20203;-88
2021/07/26 11:39:54;;;;;;;0.40;0.40;;;28.00;99.90;;;;;;5088638;28;20656;-87
2021/07/26 11:42:26;;;;;;;0.73;0.60;;;28.20;99.90;;;;;;5096906;28;20183;-87
2021/07/26 11:44:52;;;;;;;0.40;0.40;;;28.10;99.90;;;;;;5090888;28;20686;-87
2021/07/26 11:47:35;;;;;;;0.63;0.57;;;28.30;99.90;;;;;;5103135;27;20213;-86
2021/07/26 11:50:02;;;;;;;0.40;0.40;;;28.40;99.90;;;;;;5090075;28;20734;-86
2021/07/26 11:52:28;;;;;;;0.32;0.32;;;28.50;99.90;;;;;;5094127;28;20184;-86
2021/07/26 11:54:54;;;;;;;0.60;0.60;;;28.50;99.90;;;;;;5079959;28;20267;-87
2021/07/26 11:57:20;;;;;;;0.43;0.40;;;28.70;99.90;;;;;;5080699;28;20242;-88
2021/07/26 11:59:55;;;;;;;0.50;0.50;;;28.90;99.90;;;;;;5087735;28;20261;-87
2021/07/26 12:02:29;;;;;;;0.47;0.47;;;29.20;99.90;;;;;;5072380;28;20180;-87
2021/07/26 12:05:01;;;;;;;0.20;0.20;;;29.70;99.90;;;;;;5106574;28;20659;-87
2021/07/26 12:07:44;;;;;;;0.50;0.50;;;30.10;99.90;;;;;;5103434;28;20196;-87
2021/07/26 12:10:11;;;;;;;0.40;0.40;;;29.80;99.90;;;;;;5094662;28;20238;-87
2021/07/26 12:12:39;;;;;;;0.45;0.45;;;30.00;99.90;;;;;;5110275;28;20717;-88
2021/07/26 12:15:28;;;;;;;0.47;0.40;;;29.90;99.90;;;;;;5101773;28;20230;-87
2021/07/26 12:18:10;;;;;;;0.40;0.40;;;30.20;99.90;;;;;;5088554;28;20188;-87
2021/07/26 12:20:37;;;;;;;0.30;0.30;;;30.10;99.90;;;;;;5097436;28;20196;-87
2021/07/26 12:23:20;;;;;;;0.32;0.32;;;29.80;99.90;;;;;;5093830;28;20234;-87
2021/07/26 12:25:48;;;;;;;0.52;0.52;;;29.50;99.90;;;;;;5094912;28;20204;-87
2021/07/26 12:28:15;;;;;;;0.85;0.55;;;29.20;99.90;;;;;;5102011;28;20168;-88
2021/07/26 12:30:45;;;;;;;0.20;0.20;;;28.90;99.90;;;;;;5084898;28;20203;-87
2021/07/26 12:33:12;;;;;;;1.10;0.40;;;28.80;99.90;;;;;;5105649;28;20652;-87
2021/07/26 12:35:39;;;;;;;0.40;0.40;;;28.60;99.90;;;;;;5108360;28;20181;-87
2021/07/26 12:38:05;;;;;;;0.40;0.40;;;28.50;99.90;;;;;;5092824;28;20233;-88
2021/07/26 12:40:33;;;;;;;0.40;0.40;;;28.50;99.90;;;;;;5087357;28;20212;-86
2021/07/26 12:43:11;;;;;;;0.43;0.40;;;28.60;99.90;;;;;;5097329;28;20168;-87
2021/07/26 12:45:39;;;;;;;0.37;0.37;;;28.50;99.90;;;;;;5096918;28;20180;-86
2021/07/26 12:48:15;;;;;;;0.67;0.67;;;28.40;99.90;;;;;;5087931;28;20184;-87
2021/07/26 12:50:45;;;;;;;0.50;0.50;;;28.20;99.90;;;;;;5097332;28;20208;-87
2021/07/26 12:53:11;;;;;;;0.33;0.33;;;28.20;99.90;;;;;;5094116;28;20212;-87
2021/07/26 12:55:38;;;;;;;0.37;0.37;;;28.70;99.90;;;;;;5111885;28;20628;-87
2021/07/26 12:58:04;;;;;;;1.00;0.63;;;29.10;99.90;;;;;;5100341;28;20188;-87